Aviation Digital Data Service (ADDS)

Output produced by METARs form (1102 UTC 17 June 2019)
found at http://www.aviationweather.gov/metar/data/
 
METAR text: GAMB 170900Z 00000KT CAVOK 29/21 Q1014
Conditions at: GAMB (MOPTI/BARBE (MIL, ML) observed 0900 UTC 17 June 2019
Temperature: 29.0°C (84°F)
Dewpoint: 21.0°C (70°F) [RH = 62%]
Pressure (altimeter): 29.94 inches Hg (1014.0 mb)
Winds: calm
Visibility: 6 or more miles (10+ km)
Ceiling: ceiling and visibility are OK
Clouds: unknown
Weather: no significant weather observed at this time

METAR text: GAMB 170600Z 22012KT 9999 SCT030 27/21 Q1012 RETS
Conditions at: GAMB (MOPTI/BARBE (MIL, ML) observed 0600 UTC 17 June 2019
Temperature: 27.0°C (81°F)
Dewpoint: 21.0°C (70°F) [RH = 70%]
Pressure (altimeter): 29.88 inches Hg (1012.0 mb)
Winds: from the SW (220 degrees) at 14 MPH (12 knots; 6.2 m/s)
Visibility: 6 or more miles (10+ km)
Ceiling: at least 12,000 feet AGL
Clouds: scattered clouds at 3000 feet AGL
Weather: no significant weather observed at this time

METAR text: GAMB 170300Z 24014KT 9999 TS FEW030 FEW040CB 27/22 Q1012
Conditions at: GAMB (MOPTI/BARBE (MIL, ML) observed 0300 UTC 17 June 2019
Temperature: 27.0°C (81°F)
Dewpoint: 22.0°C (72°F) [RH = 74%]
Pressure (altimeter): 29.88 inches Hg (1012.0 mb)
Winds: from the WSW (240 degrees) at 16 MPH (14 knots; 7.2 m/s)
Visibility: 6 or more miles (10+ km)
Ceiling: at least 12,000 feet AGL
Clouds: few clouds at 3000 feet AGL
few clouds at 4000 feet AGL
Weather: TS  (thunderstorm)

METAR text: GAMB 170000Z 06020KT 3000 RA SCT030 27/21 Q1015 RETS REDS
Conditions at: GAMB (MOPTI/BARBE (MIL, ML) observed 0000 UTC 17 June 2019
Temperature: 27.0°C (81°F)
Dewpoint: 21.0°C (70°F) [RH = 70%]
Pressure (altimeter): 29.97 inches Hg (1015.0 mb)
Winds: from the ENE (60 degrees) at 23 MPH (20 knots; 10.3 m/s)
Visibility: 1.86 miles (2.99 km)
Ceiling: at least 12,000 feet AGL
Clouds: scattered clouds at 3000 feet AGL
Weather: RA  (moderate rain)

METAR text: GAMB 162100Z 22004KT 9999 FEW030 FEW040CB 37/18 Q1011
Conditions at: GAMB (MOPTI/BARBE (MIL, ML) observed 2100 UTC 16 June 2019
Temperature: 37.0°C (99°F)
Dewpoint: 18.0°C (64°F) [RH = 33%]
Pressure (altimeter): 29.85 inches Hg (1011.0 mb)
Winds: from the SW (220 degrees) at 5 MPH (4 knots; 2.1 m/s)
Visibility: 6 or more miles (10+ km)
Ceiling: at least 12,000 feet AGL
Clouds: few clouds at 3000 feet AGL
few clouds at 4000 feet AGL
Weather: no significant weather observed at this time

METAR text: GAMB 161800Z 24008KT CAVOK 40/18 Q1009
Conditions at: GAMB (MOPTI/BARBE (MIL, ML) observed 1800 UTC 16 June 2019
Temperature: 40.0°C (104°F)
Dewpoint: 18.0°C (64°F) [RH = 28%]
Pressure (altimeter): 29.79 inches Hg (1009.0 mb)
Winds: from the WSW (240 degrees) at 9 MPH (8 knots; 4.1 m/s)
Visibility: 6 or more miles (10+ km)
Ceiling: ceiling and visibility are OK
Clouds: unknown
Weather: no significant weather observed at this time

METAR text: GAMB 161500Z 26006KT CAVOK 40/20 Q1010
Conditions at: GAMB (MOPTI/BARBE (MIL, ML) observed 1500 UTC 16 June 2019
Temperature: 40.0°C (104°F)
Dewpoint: 20.0°C (68°F) [RH = 32%]
Pressure (altimeter): 29.82 inches Hg (1010.0 mb)
Winds: from the W (260 degrees) at 7 MPH (6 knots; 3.1 m/s)
Visibility: 6 or more miles (10+ km)
Ceiling: ceiling and visibility are OK
Clouds: unknown
Weather: no significant weather observed at this time

METAR text: GAMB 161200Z 24018KT CAVOK 38/22 Q1013
Conditions at: GAMB (MOPTI/BARBE (MIL, ML) observed 1200 UTC 16 June 2019
Temperature: 38.0°C (100°F)
Dewpoint: 22.0°C (72°F) [RH = 40%]
Pressure (altimeter): 29.91 inches Hg (1013.0 mb)
Winds: from the WSW (240 degrees) at 21 MPH (18 knots; 9.3 m/s)
Visibility: 6 or more miles (10+ km)
Ceiling: ceiling and visibility are OK
Clouds: unknown
Weather: no significant weather observed at this time

METAR text: GAMB 160900Z 24018KT CAVOK 32/22 Q1014
Conditions at: GAMB (MOPTI/BARBE (MIL, ML) observed 0900 UTC 16 June 2019
Temperature: 32.0°C (90°F)
Dewpoint: 22.0°C (72°F) [RH = 56%]
Pressure (altimeter): 29.94 inches Hg (1014.0 mb)
Winds: from the WSW (240 degrees) at 21 MPH (18 knots; 9.3 m/s)
Visibility: 6 or more miles (10+ km)
Ceiling: ceiling and visibility are OK
Clouds: unknown
Weather: no significant weather observed at this time

METAR text: GAMB 160600Z 22010KT CAVOK 28/21 Q1012
Conditions at: GAMB (MOPTI/BARBE (MIL, ML) observed 0600 UTC 16 June 2019
Temperature: 28.0°C (82°F)
Dewpoint: 21.0°C (70°F) [RH = 66%]
Pressure (altimeter): 29.88 inches Hg (1012.0 mb)
Winds: from the SW (220 degrees) at 12 MPH (10 knots; 5.1 m/s)
Visibility: 6 or more miles (10+ km)
Ceiling: ceiling and visibility are OK
Clouds: unknown
Weather: no significant weather observed at this time

METAR text: GAMB 160300Z 22012KT CAVOK 31/21 Q1011
Conditions at: GAMB (MOPTI/BARBE (MIL, ML) observed 0300 UTC 16 June 2019
Temperature: 31.0°C (88°F)
Dewpoint: 21.0°C (70°F) [RH = 55%]
Pressure (altimeter): 29.85 inches Hg (1011.0 mb)
Winds: from the SW (220 degrees) at 14 MPH (12 knots; 6.2 m/s)
Visibility: 6 or more miles (10+ km)
Ceiling: ceiling and visibility are OK
Clouds: unknown
Weather: no significant weather observed at this time

METAR text: GAMB 160000Z 22012KT CAVOK 32/19 Q1012
Conditions at: GAMB (MOPTI/BARBE (MIL, ML) observed 0000 UTC 16 June 2019
Temperature: 32.0°C (90°F)
Dewpoint: 19.0°C (66°F) [RH = 46%]
Pressure (altimeter): 29.88 inches Hg (1012.0 mb)
Winds: from the SW (220 degrees) at 14 MPH (12 knots; 6.2 m/s)
Visibility: 6 or more miles (10+ km)
Ceiling: ceiling and visibility are OK
Clouds: unknown
Weather: no significant weather observed at this time